Time;durP1;ratioP1;P1;durP2;ratioP2;P2;SDS_P1;SDS_P2;PMS_P1;PMS_P2;Temp;Humidity;BMP_temperature;BMP_pressure;BME280_temperature;BME280_humidity;BME280_pressure;Samples;Min_cycle;Max_cycle;Signal;HPM_P1;HPM_P2
2022/05/12 00:01:19;;;;;;;9.07;6.97;;;14.90;1.00;;;;;;5100301;28;20458;-59
2022/05/12 00:03:48;;;;;;;9.53;7.20;;;14.90;1.00;;;;;;5086192;28;20937;-59
2022/05/12 00:06:15;;;;;;;14.10;8.87;;;14.90;99.90;;;;;;5080145;28;20977;-59
2022/05/12 00:08:45;;;;;;;8.67;7.87;;;14.90;99.90;;;;;;5079033;28;20495;-60
2022/05/12 00:11:14;;;;;;;10.60;8.23;;;14.80;99.90;;;;;;5080146;28;20510;-58
2022/05/12 00:13:44;;;;;;;9.80;8.90;;;14.80;99.90;;;;;;5087475;28;20931;-58
2022/05/12 00:16:18;;;;;;;10.10;9.10;;;14.90;99.90;;;;;;5099936;28;20779;-58
2022/05/12 00:18:46;;;;;;;9.27;8.33;;;14.90;99.90;;;;;;5082542;28;20511;-59
2022/05/12 00:21:15;;;;;;;9.47;8.20;;;14.90;81.40;;;;;;5079420;28;20898;-58
2022/05/12 00:23:56;;;;;;;10.10;9.10;;;14.80;99.90;;;;;;5079450;28;20472;-57
2022/05/12 00:26:29;;;;;;;13.63;9.00;;;14.80;99.90;;;;;;5079588;28;20461;-58
2022/05/12 00:29:02;;;;;;;9.97;8.97;;;14.90;99.90;;;;;;5079572;28;20492;-58
2022/05/12 00:31:30;;;;;;;11.57;9.17;;;14.80;99.90;;;;;;5080986;28;20468;-60
2022/05/12 00:33:59;;;;;;;12.50;9.03;;;14.80;99.90;;;;;;5079299;28;20914;-60
2022/05/12 00:36:26;;;;;;;9.83;8.83;;;14.80;99.90;;;;;;5079311;28;20886;-58
2022/05/12 00:38:53;;;;;;;12.73;10.03;;;14.70;99.90;;;;;;5087795;28;20480;-59
2022/05/12 00:41:23;;;;;;;9.23;8.43;;;14.70;99.90;;;;;;5099563;28;20460;-60
2022/05/12 00:43:55;;;;;;;9.07;8.30;;;14.70;99.90;;;;;;5098899;28;20828;-60
2022/05/12 00:46:24;;;;;;;10.13;8.17;;;14.70;99.90;;;;;;5099475;28;20460;-59
2022/05/12 00:48:52;;;;;;;8.90;8.00;;;14.70;99.90;;;;;;5098024;28;20557;-59
2022/05/12 00:51:28;;;;;;;11.30;9.10;;;14.60;99.90;;;;;;5099875;28;20460;-59
2022/05/12 00:54:01;;;;;;;10.80;9.37;;;14.60;99.90;;;;;;5098576;28;20540;-60
2022/05/12 00:56:29;;;;;;;10.37;9.00;;;14.60;99.90;;;;;;5099573;28;20492;-60
2022/05/12 00:59:05;;;;;;;11.00;9.90;;;14.60;99.90;;;;;;5096098;28;20499;-59
2022/05/12 01:01:31;;;;;;;10.70;9.57;;;14.60;99.90;;;;;;5079121;28;20488;-59
2022/05/12 01:04:01;;;;;;;11.30;10.13;;;14.50;99.90;;;;;;5078553;28;20469;-59
2022/05/12 01:06:31;;;;;;;13.27;9.87;;;14.50;99.90;;;;;;5079624;28;20461;-59
2022/05/12 01:09:00;;;;;;;11.00;9.90;;;14.50;99.90;;;;;;5081380;28;20811;-60
2022/05/12 01:11:27;;;;;;;10.97;9.40;;;14.40;99.90;;;;;;5099156;28;20844;-59
2022/05/12 01:14:05;;;;;;;9.93;8.93;;;14.30;74.90;;;;;;5099187;28;20464;-59
2022/05/12 01:20:00;;;;;;;10.60;8.63;;;14.20;1.00;;;;;;5078033;28;20455;-59
2022/05/12 01:22:44;;;;;;;12.90;9.50;;;14.20;99.90;;;;;;5077062;28;20551;-58
2022/05/12 01:25:24;;;;;;;11.30;9.03;;;14.10;1.00;;;;;;5078099;28;20518;-59
2022/05/12 01:28:01;;;;;;;12.80;9.57;;;14.00;35.00;;;;;;5083453;28;20456;-59
2022/05/12 01:30:28;;;;;;;13.83;12.03;;;14.00;99.90;;;;;;5097642;28;20933;-59
2022/05/12 01:33:04;;;;;;;13.30;12.10;;;14.00;1.00;;;;;;5098233;28;20461;-58
2022/05/12 01:35:36;;;;;;;22.70;15.17;;;13.90;1.00;;;;;;5098580;28;20456;-59
2022/05/12 01:38:03;;;;;;;15.80;14.20;;;13.90;11.80;;;;;;5077882;28;20493;-59
2022/05/12 01:40:37;;;;;;;19.10;14.07;;;13.90;99.90;;;;;;5077850;28;21035;-59
2022/05/12 01:43:07;;;;;;;15.00;13.33;;;13.80;99.90;;;;;;5078335;28;20485;-59
2022/05/12 01:45:36;;;;;;;13.97;12.33;;;13.70;68.40;;;;;;5077682;28;20497;-59
2022/05/12 01:48:07;;;;;;;14.73;11.10;;;13.70;1.00;;;;;;5093408;28;20518;-59
2022/05/12 01:50:37;;;;;;;12.97;11.60;;;13.60;99.90;;;;;;5098040;28;20496;-59
2022/05/12 01:53:05;;;;;;;11.40;10.13;;;13.60;1.00;;;;;;5098629;28;20484;-59
2022/05/12 01:55:33;;;;;;;11.20;10.10;;;13.60;1.00;;;;;;5098068;28;20492;-59
2022/05/12 01:58:00;;;;;;;10.53;9.27;;;13.60;99.90;;;;;;5085443;28;20442;-57
2022/05/12 02:00:37;;;;;;;11.33;9.20;;;13.50;99.90;;;;;;5076994;28;20953;-58
2022/05/12 02:03:10;;;;;;;12.13;10.93;;;13.50;99.90;;;;;;5077914;28;20461;-58
2022/05/12 02:05:41;;;;;;;12.07;9.00;;;13.50;99.90;;;;;;5077658;28;20821;-57
2022/05/12 02:08:09;;;;;;;9.43;8.53;;;13.40;99.90;;;;;;5085748;28;20496;-57
2022/05/12 02:10:39;;;;;;;9.03;8.13;;;13.30;1.00;;;;;;5097530;28;20572;-57
2022/05/12 02:13:12;;;;;;;10.67;7.90;;;13.30;1.00;;;;;;5097964;28;20884;-56
2022/05/12 02:15:42;;;;;;;8.53;7.20;;;13.30;1.00;;;;;;5097242;28;20464;-59
2022/05/12 02:18:14;;;;;;;9.20;7.97;;;13.20;99.90;;;;;;5083983;28;20471;-58
2022/05/12 02:20:42;;;;;;;8.40;7.33;;;13.00;99.90;;;;;;5077076;28;20788;-58
2022/05/12 02:23:20;;;;;;;7.90;7.13;;;13.00;99.90;;;;;;5077054;28;20484;-58
2022/05/12 02:25:51;;;;;;;8.80;7.90;;;13.10;99.90;;;;;;5077209;28;20901;-58
2022/05/12 02:28:20;;;;;;;9.80;8.03;;;13.00;99.90;;;;;;5083270;28;20517;-58
2022/05/12 02:30:47;;;;;;;9.27;8.27;;;12.90;99.90;;;;;;5097480;28;20821;-58
2022/05/12 02:33:14;;;;;;;9.83;8.83;;;12.80;99.90;;;;;;5095360;28;20774;-58
2022/05/12 02:35:41;;;;;;;11.37;9.00;;;12.70;99.90;;;;;;5097329;28;20525;-58
2022/05/12 02:38:13;;;;;;;11.00;8.90;;;12.70;1.00;;;;;;5095034;28;20488;-59
2022/05/12 02:40:43;;;;;;;13.53;9.40;;;12.70;1.00;;;;;;5076809;28;20514;-58
2022/05/12 02:45:56;;;;;;;12.00;9.00;;;12.50;1.00;;;;;;5088669;28;20457;-59
2022/05/12 02:48:26;;;;;;;11.50;8.50;;;12.50;53.60;;;;;;5097748;28;20482;-58
2022/05/12 02:50:53;;;;;;;9.40;7.80;;;12.30;1.00;;;;;;5096970;28;20488;-58
2022/05/12 02:53:31;;;;;;;11.03;7.73;;;12.20;99.90;;;;;;5097669;28;20873;-57
2022/05/12 02:56:01;;;;;;;9.53;7.90;;;12.20;99.90;;;;;;5087035;28;20461;-56
2022/05/12 02:58:30;;;;;;;11.40;7.80;;;12.20;99.90;;;;;;5076964;28;20511;-56
2022/05/12 03:00:59;;;;;;;12.40;7.50;;;12.10;99.90;;;;;;5076746;28;20457;-59
2022/05/12 03:03:27;;;;;;;10.77;6.90;;;12.10;99.90;;;;;;5077005;28;20461;-59
2022/05/12 03:05:55;;;;;;;11.40;8.07;;;12.10;99.90;;;;;;5081340;28;20460;-57
2022/05/12 03:08:24;;;;;;;11.43;7.40;;;12.00;99.90;;;;;;5097408;28;20923;-58
2022/05/12 03:10:52;;;;;;;9.83;7.90;;;11.90;99.90;;;;;;5098065;28;20495;-59
2022/05/12 03:13:25;;;;;;;13.20;8.27;;;12.00;99.90;;;;;;5101282;28;20469;-59
2022/05/12 03:15:56;;;;;;;9.10;8.20;;;12.00;99.90;;;;;;5090240;28;20454;-59
2022/05/12 03:18:25;;;;;;;12.27;8.97;;;11.80;99.90;;;;;;5088722;28;20483;-59
2022/05/12 03:20:58;;;;;;;9.90;8.30;;;11.80;99.90;;;;;;5089204;28;20559;-60
2022/05/12 03:23:28;;;;;;;12.90;8.30;;;11.80;99.90;;;;;;5088902;28;20944;-60
2022/05/12 03:25:58;;;;;;;9.30;7.43;;;11.70;99.90;;;;;;5087925;28;20453;-60
2022/05/12 03:28:34;;;;;;;8.63;7.80;;;11.70;99.90;;;;;;5088564;28;20457;-59
2022/05/12 03:31:03;;;;;;;10.87;8.97;;;11.70;1.00;;;;;;5083004;28;20555;-58
2022/05/12 03:33:33;;;;;;;10.17;8.10;;;11.60;1.00;;;;;;5091488;28;20452;-60
2022/05/12 03:36:10;;;;;;;;;;;;;;;;;;;;;
2022/05/12 03:38:40;;;;;;;10.33;9.30;;;11.60;1.00;;;;;;5096836;28;20498;-60
2022/05/12 03:41:07;;;;;;;10.43;7.90;;;11.60;1.00;;;;;;5100180;28;20920;-59
2022/05/12 03:46:23;;;;;;;12.80;8.90;;;11.60;1.00;;;;;;5100234;28;20434;-59
2022/05/12 03:48:58;;;;;;;13.53;9.30;;;11.60;1.00;;;;;;5085886;28;20465;-59
2022/05/12 03:51:28;;;;;;;12.90;9.00;;;11.70;1.00;;;;;;5080611;28;20899;-60
2022/05/12 03:53:54;;;;;;;11.90;9.73;;;11.60;1.00;;;;;;5080351;28;21036;-59
2022/05/12 03:56:27;;;;;;;18.07;9.90;;;11.60;1.00;;;;;;5079859;28;20461;-60
2022/05/12 03:58:56;;;;;;;12.73;9.63;;;11.60;1.00;;;;;;5080296;28;20461;-60
2022/05/12 04:01:27;;;;;;;12.20;9.30;;;11.60;1.00;;;;;;5080159;28;20465;-60
2022/05/12 04:03:54;;;;;;;11.53;10.07;;;11.60;1.00;;;;;;5079592;28;20515;-60
2022/05/12 04:06:21;;;;;;;10.50;9.50;;;11.60;99.90;;;;;;5099030;28;20476;-60
2022/05/12 04:08:50;;;;;;;11.47;9.23;;;11.70;99.90;;;;;;5099452;28;20517;-60
2022/05/12 04:11:17;;;;;;;12.37;9.43;;;11.60;1.00;;;;;;5100184;28;20509;-60
2022/05/12 04:13:44;;;;;;;16.27;10.03;;;11.60;62.40;;;;;;5099940;28;20529;-60
2022/05/12 04:16:15;;;;;;;10.33;9.23;;;11.60;1.00;;;;;;5084417;28;20514;-60
2022/05/12 04:18:48;;;;;;;9.90;8.90;;;11.60;50.10;;;;;;5087391;28;20494;-60
2022/05/12 04:21:17;;;;;;;10.10;9.10;;;11.50;1.00;;;;;;5093247;28;20549;-60
2022/05/12 04:23:46;;;;;;;11.80;8.60;;;11.60;99.90;;;;;;5098398;28;20464;-60
2022/05/12 04:26:18;;;;;;;11.97;7.87;;;11.60;99.90;;;;;;5098462;28;20460;-61
2022/05/12 04:28:55;;;;;;;9.17;8.00;;;11.70;1.00;;;;;;5098566;28;20513;-60
2022/05/12 04:31:22;;;;;;;13.30;8.43;;;11.60;99.90;;;;;;5092603;28;20547;-60
2022/05/12 04:36:47;;;;;;;11.23;8.70;;;11.80;99.90;;;;;;5020418;28;20964;-60
2022/05/12 04:39:14;;;;;;;8.53;7.57;;;11.80;53.90;;;;;;5076784;28;20555;-59
2022/05/12 04:41:41;;;;;;;9.50;7.10;;;11.80;1.00;;;;;;5077736;28;20518;-60
2022/05/12 04:44:08;;;;;;;8.07;7.00;;;11.80;1.00;;;;;;5078897;28;20508;-60
2022/05/12 04:46:42;;;;;;;8.47;7.30;;;11.80;9.30;;;;;;5079057;28;20514;-60
2022/05/12 04:49:13;;;;;;;8.90;6.70;;;11.80;11.90;;;;;;5078475;28;20457;-60
2022/05/12 04:51:41;;;;;;;7.73;6.93;;;11.90;1.00;;;;;;5078899;28;20465;-60
2022/05/12 04:54:14;;;;;;;9.00;7.70;;;11.90;1.00;;;;;;5078742;28;20466;-60
2022/05/12 04:56:42;;;;;;;7.13;6.43;;;11.90;1.00;;;;;;5078979;28;20461;-60
2022/05/12 04:59:10;;;;;;;11.00;7.60;;;11.90;1.00;;;;;;5081673;28;20529;-60
2022/05/12 05:01:40;;;;;;;7.70;6.70;;;12.00;1.00;;;;;;5098555;28;20865;-60
2022/05/12 05:04:13;;;;;;;10.10;6.53;;;12.00;1.00;;;;;;5098512;28;20831;-60
2022/05/12 05:06:40;;;;;;;9.63;7.37;;;12.00;1.00;;;;;;5097680;28;20467;-60
2022/05/12 05:09:09;;;;;;;15.70;7.00;;;12.00;1.00;;;;;;5098345;28;20468;-60
2022/05/12 05:11:41;;;;;;;8.93;7.80;;;12.10;1.00;;;;;;5077397;28;20740;-60
2022/05/12 05:14:15;;;;;;;10.20;7.27;;;12.20;1.00;;;;;;5081055;28;20490;-60
2022/05/12 05:16:46;;;;;;;13.30;7.00;;;12.20;1.00;;;;;;5081459;28;20514;-59
2022/05/12 05:19:19;;;;;;;13.87;7.60;;;12.20;1.00;;;;;;5076913;28;20461;-60
2022/05/12 05:21:46;;;;;;;12.17;8.27;;;12.30;1.00;;;;;;5076763;28;20556;-60
2022/05/12 05:24:16;;;;;;;13.63;9.17;;;12.30;1.00;;;;;;5078264;28;20541;-60
2022/05/12 05:26:43;;;;;;;16.43;9.60;;;12.30;1.00;;;;;;5081847;28;20469;-59
2022/05/12 05:29:13;;;;;;;13.60;9.83;;;12.40;1.00;;;;;;5077300;28;20511;-60
2022/05/12 05:31:40;;;;;;;12.10;9.50;;;12.50;1.00;;;;;;5075999;28;20467;-60
2022/05/12 05:34:09;;;;;;;10.30;8.53;;;12.50;1.00;;;;;;5075731;28;20901;-60
2022/05/12 05:36:42;;;;;;;16.97;10.40;;;12.50;1.00;;;;;;5077465;28;20465;-60
2022/05/12 05:39:19;;;;;;;14.50;9.27;;;12.60;1.00;;;;;;5077635;28;20495;-62
2022/05/12 05:41:46;;;;;;;14.17;9.93;;;12.70;1.00;;;;;;5078203;28;20987;-62
2022/05/12 05:44:15;;;;;;;15.80;11.00;;;12.70;1.00;;;;;;5077781;28;20487;-62
2022/05/12 05:46:45;;;;;;;12.70;10.53;;;12.80;1.00;;;;;;5078373;28;20745;-62
2022/05/12 05:49:14;;;;;;;13.63;10.00;;;12.90;1.00;;;;;;5078367;28;20457;-61
2022/05/12 05:54:34;;;;;;;12.87;9.20;;;13.10;1.00;;;;;;5077566;28;20436;-62
2022/05/12 05:57:09;;;;;;;11.10;7.70;;;13.10;1.00;;;;;;5078083;28;20764;-62
2022/05/12 05:59:39;;;;;;;10.80;8.20;;;13.10;1.00;;;;;;5077116;28;20461;-62
2022/05/12 06:02:09;;;;;;;11.30;9.17;;;13.30;1.00;;;;;;5078075;28;20461;-62
2022/05/12 06:04:36;;;;;;;9.27;6.90;;;13.40;1.00;;;;;;5077409;28;20522;-63
2022/05/12 06:07:07;;;;;;;11.13;8.20;;;13.50;1.00;;;;;;5077862;28;20464;-62
2022/05/12 06:09:34;;;;;;;9.17;7.40;;;13.70;1.00;;;;;;5077177;28;20515;-62
2022/05/12 06:12:01;;;;;;;10.80;8.17;;;13.80;1.00;;;;;;5077648;28;20766;-62
2022/05/12 06:14:35;;;;;;;10.70;6.63;;;14.00;1.00;;;;;;5094145;28;20540;-63
2022/05/12 06:17:02;;;;;;;10.83;7.67;;;14.00;1.00;;;;;;5090854;28;20763;-62
2022/05/12 06:19:35;;;;;;;9.77;7.70;;;14.30;1.00;;;;;;5082957;28;20472;-63
2022/05/12 06:22:04;;;;;;;12.00;7.43;;;14.60;1.00;;;;;;5077105;28;20845;-63
2022/05/12 06:24:32;;;;;;;11.00;7.33;;;14.70;99.90;;;;;;5076827;28;20468;-63
2022/05/12 06:27:02;;;;;;;9.47;6.87;;;14.30;99.90;;;;;;5079137;28;20457;-62
2022/05/12 06:29:29;;;;;;;8.80;6.03;;;14.40;99.90;;;;;;5097468;28;20893;-62
2022/05/12 06:31:55;;;;;;;10.97;6.43;;;14.50;99.90;;;;;;5096993;28;20457;-63
2022/05/12 06:34:24;;;;;;;7.97;6.90;;;14.70;99.90;;;;;;5097529;28;20509;-62
2022/05/12 06:36:56;;;;;;;7.73;6.50;;;14.80;99.90;;;;;;5097513;28;20928;-63
2022/05/12 06:39:28;;;;;;;10.00;7.60;;;14.90;99.90;;;;;;5097010;28;20583;-62
2022/05/12 06:41:58;;;;;;;11.90;8.67;;;14.90;99.90;;;;;;5097197;28;20492;-62
2022/05/12 06:44:43;;;;;;;12.20;6.93;;;15.40;99.90;;;;;;5097511;28;20510;-62
2022/05/12 06:47:14;;;;;;;13.73;6.93;;;15.50;99.90;;;;;;5096543;28;20992;-62
2022/05/12 06:49:44;;;;;;;11.50;7.10;;;15.40;99.90;;;;;;5097241;28;20491;-62
2022/05/12 06:52:17;;;;;;;8.33;7.47;;;15.00;99.90;;;;;;5097227;28;20464;-61
2022/05/12 06:54:48;;;;;;;9.87;6.40;;;15.10;99.90;;;;;;5096763;28;20468;-62
2022/05/12 06:57:21;;;;;;;9.43;6.70;;;14.90;99.90;;;;;;5097385;28;20455;-62
2022/05/12 06:59:52;;;;;;;8.33;6.17;;;14.70;99.90;;;;;;5097059;28;20889;-62
2022/05/12 07:02:24;;;;;;;6.20;5.57;;;14.90;99.90;;;;;;5097396;28;20467;-62
2022/05/12 07:04:52;;;;;;;7.67;7.00;;;15.20;99.90;;;;;;5097356;28;20460;-62
2022/05/12 07:07:22;;;;;;;11.10;6.60;;;15.70;99.90;;;;;;5096615;28;20460;-61
2022/05/12 07:09:56;;;;;;;10.20;6.77;;;15.80;99.90;;;;;;5087236;28;20461;-61
2022/05/12 07:12:29;;;;;;;8.07;5.50;;;15.90;99.90;;;;;;5075671;28;20901;-62
2022/05/12 07:14:59;;;;;;;8.80;6.20;;;15.80;99.90;;;;;;5079385;28;20919;-61
2022/05/12 07:17:26;;;;;;;9.97;6.33;;;16.00;99.90;;;;;;5081302;28;20461;-62
2022/05/12 07:26:34;;;;;;;8.63;6.10;;;16.40;99.90;;;;;;5080681;28;20518;-62
2022/05/12 07:28:15;;;;;;;7.33;5.50;;;16.90;99.90;;;;;;5084146;28;20452;-62
2022/05/12 07:33:36;;;;;;;6.63;6.03;;;17.80;99.90;;;;;;5073476;28;20476;-61
2022/05/12 07:36:05;;;;;;;8.70;6.10;;;18.00;99.90;;;;;;5082083;28;20826;-62
2022/05/12 07:38:34;;;;;;;6.00;5.37;;;18.90;99.90;;;;;;5089405;28;20524;-62
2022/05/12 07:41:09;;;;;;;10.00;5.47;;;18.90;99.90;;;;;;5078941;28;20538;-61
2022/05/12 07:43:38;;;;;;;6.73;5.23;;;18.60;99.90;;;;;;5076851;28;20562;-62
2022/05/12 07:46:05;;;;;;;6.33;5.37;;;18.10;99.90;;;;;;5076994;28;20762;-62
2022/05/12 07:48:36;;;;;;;6.17;5.20;;;18.50;99.90;;;;;;5074722;28;20475;-61
2022/05/12 07:51:03;;;;;;;7.77;4.77;;;18.80;99.90;;;;;;5081753;28;20452;-61
2022/05/12 07:53:30;;;;;;;8.70;5.00;;;19.30;99.90;;;;;;5078508;28;20504;-61
2022/05/12 07:55:57;;;;;;;6.60;4.90;;;19.60;99.90;;;;;;5074248;28;20901;-61
2022/05/12 07:58:31;;;;;;;5.67;4.07;;;20.00;99.90;;;;;;5076718;28;20465;-61
2022/05/12 08:00:58;;;;;;;5.73;5.10;;;20.10;99.90;;;;;;5082179;28;20585;-62
2022/05/12 08:03:26;;;;;;;7.23;4.63;;;20.00;99.90;;;;;;5093584;28;20555;-62
2022/05/12 08:05:54;;;;;;;5.53;4.20;;;20.10;99.90;;;;;;5088340;28;20559;-62
2022/05/12 08:08:38;;;;;;;6.73;4.07;;;20.10;99.90;;;;;;5080787;28;20519;-62
2022/05/12 08:11:07;;;;;;;8.03;4.83;;;20.00;99.90;;;;;;5092718;28;20484;-62
2022/05/12 08:13:36;;;;;;;6.53;4.20;;;20.10;99.90;;;;;;5094779;28;20555;-62
2022/05/12 08:16:04;;;;;;;8.33;4.83;;;20.00;99.90;;;;;;5088112;28;20463;-62
2022/05/12 08:18:35;;;;;;;4.70;4.20;;;20.10;99.90;;;;;;5084333;28;20460;-62
2022/05/12 08:21:06;;;;;;;5.90;4.03;;;20.30;99.90;;;;;;5088582;28;20488;-63
2022/05/12 08:23:39;;;;;;;5.50;4.23;;;20.50;99.90;;;;;;5089660;28;20499;-62
2022/05/12 08:26:11;;;;;;;7.43;4.20;;;20.50;99.90;;;;;;5088101;28;20457;-62
2022/05/12 08:28:44;;;;;;;4.50;4.10;;;20.70;99.90;;;;;;5092086;28;20551;-62
2022/05/12 08:31:15;;;;;;;5.17;4.30;;;20.40;99.90;;;;;;5088367;28;20805;-62
2022/05/12 08:33:48;;;;;;;8.17;5.03;;;20.10;99.90;;;;;;5085862;28;20484;-63
2022/05/12 08:36:15;;;;;;;5.43;4.27;;;20.50;99.90;;;;;;5087615;28;20503;-63
2022/05/12 08:38:46;;;;;;;8.37;4.90;;;21.10;99.90;;;;;;5080803;28;20489;-62
2022/05/12 08:41:27;;;;;;;6.47;4.47;;;21.40;99.90;;;;;;5091341;28;20492;-62
2022/05/12 08:44:06;;;;;;;5.53;4.50;;;20.60;99.90;;;;;;5080645;28;20470;-63
2022/05/12 08:46:44;;;;;;;5.90;4.50;;;20.00;99.90;;;;;;5079767;28;20507;-63
2022/05/12 08:49:30;;;;;;;6.50;4.60;;;18.80;99.90;;;;;;5079706;28;20465;-63
2022/05/12 08:52:06;;;;;;;4.57;4.10;;;18.90;99.90;;;;;;5078806;28;20464;-62
2022/05/12 08:54:36;;;;;;;5.67;4.20;;;19.70;99.90;;;;;;5086649;28;20472;-62
2022/05/12 08:57:10;;;;;;;7.70;3.97;;;20.40;99.90;;;;;;5099167;28;20504;-63
2022/05/12 08:59:43;;;;;;;4.60;3.90;;;21.10;99.90;;;;;;5093880;28;20835;-63
2022/05/12 09:02:25;;;;;;;5.47;4.27;;;21.70;99.90;;;;;;5098835;28;20960;-62
2022/05/12 09:05:02;;;;;;;5.60;4.47;;;21.40;99.90;;;;;;5095752;28;20471;-62
2022/05/12 09:07:35;;;;;;;5.73;4.70;;;21.60;99.90;;;;;;5098767;28;20452;-62
2022/05/12 09:10:34;;;;;;;5.77;4.30;;;21.80;99.90;;;;;;5080594;28;20462;-63
2022/05/12 09:13:10;;;;;;;7.00;4.40;;;21.40;99.90;;;;;;5077554;28;20983;-62
2022/05/12 09:15:49;;;;;;;8.97;5.20;;;21.80;99.90;;;;;;5077201;28;20464;-63
2022/05/12 09:18:19;;;;;;;5.97;4.57;;;21.80;99.90;;;;;;5079125;28;20469;-63
2022/05/12 09:20:46;;;;;;;7.60;4.73;;;21.50;99.90;;;;;;5079087;28;20469;-62
2022/05/12 09:23:13;;;;;;;6.70;4.80;;;21.40;99.90;;;;;;5078080;28;20792;-62
2022/05/12 09:25:45;;;;;;;7.03;5.30;;;22.10;99.90;;;;;;5083568;28;20475;-62
2022/05/12 09:28:23;;;;;;;5.80;5.20;;;22.50;99.90;;;;;;5097820;28;20468;-62
2022/05/12 09:30:54;;;;;;;7.60;4.90;;;22.20;99.90;;;;;;5091460;28;20482;-62
2022/05/12 09:33:33;;;;;;;7.57;5.60;;;21.70;99.90;;;;;;5094648;28;20734;-62
2022/05/12 09:36:06;;;;;;;6.10;5.50;;;21.40;99.90;;;;;;5080624;28;20472;-62
2022/05/12 09:38:44;;;;;;;6.07;5.40;;;21.00;99.90;;;;;;5077369;28;20587;-62
2022/05/12 09:41:22;;;;;;;8.10;5.47;;;21.70;99.90;;;;;;5079155;28;20488;-62
2022/05/12 09:43:55;;;;;;;6.40;5.50;;;21.10;99.90;;;;;;5081040;28;20480;-62
2022/05/12 09:46:30;;;;;;;6.50;5.50;;;20.40;99.90;;;;;;5087450;28;20866;-62
2022/05/12 09:49:23;;;;;;;7.77;5.63;;;19.70;99.90;;;;;;5095526;28;20479;-62
2022/05/12 09:51:55;;;;;;;6.20;5.63;;;19.10;99.90;;;;;;5086375;28;20534;-62
2022/05/12 09:54:28;;;;;;;7.80;5.10;;;20.10;99.90;;;;;;5077738;28;20453;-63
2022/05/12 09:57:14;;;;;;;6.20;5.60;;;20.00;99.90;;;;;;5083752;28;20894;-62
2022/05/12 09:59:58;;;;;;;5.60;5.10;;;20.80;99.90;;;;;;5094003;28;20464;-62
2022/05/12 10:08:18;;;;;;;5.30;4.80;;;23.50;99.90;;;;;;5089330;28;20599;-63
2022/05/12 10:10:48;;;;;;;5.00;4.50;;;23.40;99.90;;;;;;5079294;28;20473;-62
2022/05/12 10:13:25;;;;;;;5.60;4.60;;;23.80;99.90;;;;;;5078229;28;20498;-62
2022/05/12 10:15:57;;;;;;;7.70;5.37;;;24.40;99.90;;;;;;5077469;28;20507;-62
2022/05/12 10:18:31;;;;;;;5.53;4.70;;;24.80;99.90;;;;;;5083718;28;20513;-62
2022/05/12 10:21:09;;;;;;;5.37;4.70;;;24.70;99.90;;;;;;5096454;28;20885;-62
2022/05/12 10:23:49;;;;;;;6.17;5.50;;;24.70;99.90;;;;;;5079655;28;20559;-62
2022/05/12 10:26:23;;;;;;;5.87;5.27;;;23.10;99.90;;;;;;5075932;28;20557;-62
2022/05/12 10:28:53;;;;;;;6.10;5.60;;;23.20;99.90;;;;;;5092795;28;20873;-61
2022/05/12 10:31:29;;;;;;;5.03;4.53;;;22.40;99.90;;;;;;5087807;28;20469;-61
2022/05/12 10:34:34;;;;;;;5.63;4.93;;;21.50;99.90;;;;;;5076030;28;20492;-59
2022/05/12 10:39:53;;;;;;;6.07;5.53;;;20.50;99.90;;;;;;5072867;28;20487;-60
2022/05/12 10:42:31;;;;;;;12.43;5.20;;;20.30;99.90;;;;;;5092942;28;20484;-60
2022/05/12 10:45:23;;;;;;;5.33;4.83;;;20.20;99.90;;;;;;5096836;28;20568;-59
2022/05/12 10:48:17;;;;;;;5.83;5.13;;;19.90;99.90;;;;;;5045585;28;20834;-60
2022/05/12 10:50:51;;;;;;;8.53;5.63;;;20.90;99.90;;;;;;5085510;28;20460;-61
2022/05/12 10:53:32;;;;;;;9.07;5.60;;;22.10;99.90;;;;;;5078264;28;20560;-61
2022/05/12 10:56:13;;;;;;;7.47;5.70;;;22.30;99.90;;;;;;5092669;28;20484;-61
2022/05/12 10:58:48;;;;;;;4.80;4.40;;;22.70;99.90;;;;;;5077285;28;20468;-60
2022/05/12 11:01:20;;;;;;;5.57;4.90;;;22.90;99.90;;;;;;5075981;28;20915;-60
2022/05/12 11:03:53;;;;;;;6.43;5.70;;;22.40;99.90;;;;;;5076389;28;20461;-60
2022/05/12 11:06:30;;;;;;;5.47;4.80;;;22.10;99.90;;;;;;5085076;28;20460;-59
2022/05/12 11:09:05;;;;;;;6.07;4.87;;;21.50;99.90;;;;;;5075034;28;20567;-61
2022/05/12 11:11:37;;;;;;;5.73;5.23;;;21.00;99.90;;;;;;5074044;28;20465;-61
2022/05/12 11:14:30;;;;;;;7.30;5.07;;;21.30;99.90;;;;;;5075727;28;20842;-60
2022/05/12 11:17:12;;;;;;;5.93;4.70;;;21.60;99.90;;;;;;5078773;28;20817;-61
2022/05/12 11:19:51;;;;;;;5.63;4.73;;;21.90;99.90;;;;;;5083358;28;20468;-61
2022/05/12 11:22:35;;;;;;;5.70;4.60;;;22.30;99.90;;;;;;5078624;28;20491;-60
2022/05/12 11:25:07;;;;;;;5.10;4.37;;;21.80;99.90;;;;;;5077511;28;20484;-61
2022/05/12 11:27:46;;;;;;;4.63;4.20;;;22.10;99.90;;;;;;5084850;28;20874;-61
2022/05/12 11:30:33;;;;;;;6.53;4.27;;;22.80;99.90;;;;;;5087941;28;20472;-62
2022/05/12 11:33:32;;;;;;;5.50;4.33;;;22.60;99.90;;;;;;5085051;28;20461;-62
2022/05/12 11:36:03;;;;;;;6.10;5.37;;;23.00;99.90;;;;;;5079028;28;20489;-61
2022/05/12 11:38:56;;;;;;;7.47;4.77;;;23.40;99.90;;;;;;5079423;28;20794;-61
2022/05/12 11:41:46;;;;;;;5.47;4.60;;;23.60;99.90;;;;;;5080027;28;20508;-62
2022/05/12 11:44:34;;;;;;;6.53;4.17;;;23.50;99.90;;;;;;5081554;28;20495;-62
2022/05/12 11:47:28;;;;;;;4.90;4.07;;;23.30;99.90;;;;;;5091744;28;20858;-61
2022/05/12 11:50:09;;;;;;;5.80;4.37;;;23.80;99.90;;;;;;5078541;28;20517;-62
2022/05/12 11:52:59;;;;;;;4.10;3.50;;;23.30;99.90;;;;;;5079475;28;20458;-62
2022/05/12 11:55:30;;;;;;;4.30;3.57;;;23.10;99.90;;;;;;5092038;28;20918;-61
2022/05/12 11:58:05;;;;;;;5.10;3.90;;;23.90;99.90;;;;;;5099368;28;20460;-61
2022/05/12 12:01:00;;;;;;;4.30;3.90;;;24.00;99.90;;;;;;5097600;28;20459;-61
2022/05/12 12:03:58;;;;;;;6.83;3.70;;;24.00;99.90;;;;;;5099313;28;20494;-61
2022/05/12 12:06:49;;;;;;;6.10;4.17;;;24.50;99.90;;;;;;5081510;28;20469;-62
2022/05/12 12:09:51;;;;;;;4.30;3.43;;;24.70;99.90;;;;;;5079036;28;20464;-62
2022/05/12 12:12:55;;;;;;;6.00;3.80;;;24.80;99.90;;;;;;5079230;28;20519;-61
2022/05/12 12:15:50;;;;;;;4.73;3.43;;;24.60;99.90;;;;;;5084652;28;20763;-61
2022/05/12 12:18:47;;;;;;;4.80;4.40;;;24.80;99.90;;;;;;5099255;28;20483;-62
2022/05/12 12:21:44;;;;;;;6.73;4.43;;;23.30;99.90;;;;;;5075292;28;20472;-59
2022/05/12 12:24:41;;;;;;;4.63;4.23;;;21.60;99.90;;;;;;5079778;28;20492;-61
2022/05/12 12:27:47;;;;;;;5.77;5.27;;;21.60;99.90;;;;;;5092696;28;20500;-62
2022/05/12 12:31:05;;;;;;;4.63;4.23;;;22.00;99.90;;;;;;5063310;28;20548;-62
2022/05/12 12:34:01;;;;;;;6.73;5.57;;;22.10;99.90;;;;;;5074561;28;20873;-62
2022/05/12 12:37:06;;;;;;;5.40;4.83;;;22.50;99.90;;;;;;5093142;28;20929;-61
2022/05/12 12:39:40;;;;;;;5.27;4.77;;;23.30;99.90;;;;;;5077804;28;20485;-61
2022/05/12 12:42:41;;;;;;;5.43;3.93;;;24.00;99.90;;;;;;5078172;28;20497;-61
2022/05/12 12:45:15;;;;;;;5.57;4.60;;;24.00;99.90;;;;;;5094132;28;20471;-61
2022/05/12 12:47:52;;;;;;;6.80;5.37;;;23.30;99.90;;;;;;5099241;28;20460;-62
2022/05/12 12:50:41;;;;;;;6.40;4.30;;;23.40;99.90;;;;;;5099242;28;21010;-61
2022/05/12 12:53:11;;;;;;;5.10;4.70;;;22.90;99.90;;;;;;5097341;28;20903;-62
2022/05/12 12:58:38;;;;;;;5.40;4.90;;;21.70;99.90;;;;;;5098381;28;20749;-61
2022/05/12 13:01:14;;;;;;;8.20;5.00;;;21.80;99.90;;;;;;5098812;28;20455;-61
2022/05/12 13:04:00;;;;;;;5.00;4.37;;;21.70;99.90;;;;;;5084487;28;20495;-61
2022/05/12 13:06:36;;;;;;;5.47;4.47;;;22.50;99.90;;;;;;5078552;28;20472;-61
2022/05/12 13:09:09;;;;;;;4.50;3.83;;;22.30;99.90;;;;;;5093491;28;20464;-61
2022/05/12 13:11:38;;;;;;;4.63;4.20;;;22.70;99.90;;;;;;5094470;28;20469;-61
2022/05/12 13:14:08;;;;;;;7.70;4.47;;;23.20;99.90;;;;;;5095762;28;20469;-62
2022/05/12 13:16:42;;;;;;;4.93;4.53;;;23.10;99.90;;;;;;5097242;28;20920;-61
2022/05/12 13:19:18;;;;;;;6.00;4.17;;;23.20;99.90;;;;;;5077241;28;20501;-61
2022/05/12 13:21:53;;;;;;;5.33;4.30;;;23.30;99.90;;;;;;5077005;28;20573;-61
2022/05/12 13:24:27;;;;;;;5.60;5.10;;;23.40;99.90;;;;;;5077438;28;20778;-61
2022/05/12 13:27:04;;;;;;;5.80;3.93;;;22.60;99.90;;;;;;5077344;28;20468;-61
2022/05/12 13:29:35;;;;;;;6.90;4.47;;;22.50;99.90;;;;;;5087777;28;20460;-60
2022/05/12 13:32:06;;;;;;;6.67;3.97;;;22.20;99.90;;;;;;5096782;28;20470;-61
2022/05/12 13:34:36;;;;;;;5.70;4.40;;;22.20;99.90;;;;;;5096427;28;20486;-61
2022/05/12 13:37:17;;;;;;;4.30;3.90;;;22.20;99.90;;;;;;5098405;28;20517;-60
2022/05/12 13:39:50;;;;;;;7.83;4.67;;;22.00;99.90;;;;;;5088550;28;20799;-61
2022/05/12 13:42:23;;;;;;;5.63;4.60;;;23.00;99.90;;;;;;5077863;28;20497;-61
2022/05/12 13:44:56;;;;;;;5.43;4.03;;;23.00;99.90;;;;;;5076799;28;20813;-61
2022/05/12 13:47:30;;;;;;;7.30;4.90;;;22.70;99.90;;;;;;5077465;28;20473;-60
2022/05/12 13:49:58;;;;;;;4.93;4.50;;;22.50;99.90;;;;;;5081066;28;20496;-60
2022/05/12 13:52:38;;;;;;;4.47;3.93;;;22.30;99.90;;;;;;5077051;28;20457;-61
2022/05/12 13:55:16;;;;;;;4.27;3.97;;;22.00;99.90;;;;;;5076793;28;20472;-62